createdAt,value
2022-10-17T00:02:25.837Z,13.37
2022-10-17T00:07:28.908Z,13.33
2022-10-17T00:12:33.836Z,13.28
2022-10-17T00:17:38.282Z,13.26
2022-10-17T00:22:41.179Z,13.17
2022-10-17T00:27:45.434Z,13.16
2022-10-17T00:32:50.567Z,13.12
2022-10-17T00:37:53.418Z,13.10
2022-10-17T00:42:57.477Z,13.11
2022-10-17T00:48:04.893Z,13.05
2022-10-17T00:53:09.514Z,13.03
2022-10-17T00:58:13.897Z,13.04
2022-10-17T01:03:18.854Z,13.01
2022-10-17T01:08:21.892Z,12.99
2022-10-17T01:13:31.848Z,12.91
2022-10-17T01:18:47.959Z,12.89
2022-10-17T01:24:29.640Z,12.77
2022-10-17T01:30:10.246Z,12.74
2022-10-17T01:35:23.195Z,12.64
2022-10-17T01:40:30.671Z,12.61
2022-10-17T01:45:41.742Z,12.54
2022-10-17T01:50:50.626Z,12.52
2022-10-17T01:55:55.165Z,12.46
2022-10-17T02:01:01.102Z,12.49
2022-10-17T02:06:08.504Z,12.59
2022-10-17T02:11:16.089Z,12.60
2022-10-17T02:16:30.372Z,12.67
2022-10-17T02:21:43.540Z,12.62
2022-10-17T02:26:53.548Z,12.64
2022-10-17T02:32:02.099Z,12.70
2022-10-17T02:37:08.865Z,12.72
2022-10-17T02:42:14.202Z,12.74
2022-10-17T02:47:22.745Z,12.66
2022-10-17T02:52:33.204Z,12.80
2022-10-17T02:57:40.770Z,12.75
2022-10-17T03:02:46.448Z,12.77
2022-10-17T03:07:50.903Z,12.75
2022-10-17T03:12:53.664Z,12.74
2022-10-17T03:17:56.940Z,12.74
2022-10-17T03:23:02.089Z,12.66
2022-10-17T03:28:05.798Z,12.62
2022-10-17T03:33:09.098Z,12.59
2022-10-17T03:38:13.957Z,12.62
2022-10-17T03:43:17.532Z,12.59
2022-10-17T03:48:20.477Z,12.59
2022-10-17T03:53:24.997Z,12.59
2022-10-17T03:58:27.849Z,12.61
2022-10-17T04:03:31.609Z,12.63
2022-10-17T04:08:36.291Z,12.64
2022-10-17T04:13:44.226Z,12.66
2022-10-17T04:18:47.688Z,12.70
2022-10-17T04:23:56.039Z,12.67
2022-10-17T04:29:15.187Z,12.74
2022-10-17T04:34:20.120Z,12.71
2022-10-17T04:39:24.310Z,12.69
2022-10-17T04:44:30.775Z,12.67
2022-10-17T04:49:34.611Z,12.66
2022-10-17T04:54:46.061Z,12.63
2022-10-17T04:59:49.878Z,12.63
2022-10-17T05:05:05.079Z,12.63
2022-10-17T05:10:10.187Z,12.63
2022-10-17T05:15:13.321Z,12.58
2022-10-17T05:20:16.937Z,12.51
2022-10-17T05:25:22.055Z,12.48
2022-10-17T05:30:25.790Z,12.48
2022-10-17T05:35:33.489Z,12.40
2022-10-17T05:40:39.309Z,12.42
2022-10-17T05:45:42.190Z,12.39
2022-10-17T05:50:50.094Z,12.44
2022-10-17T05:55:58.898Z,12.40
2022-10-17T06:01:09.387Z,12.47
2022-10-17T06:06:16.332Z,12.58
2022-10-17T06:11:22.464Z,12.62
2022-10-17T06:16:26.142Z,12.77
2022-10-17T06:21:29.475Z,12.99
2022-10-17T06:26:44.316Z,13.27
2022-10-17T06:31:49.877Z,13.47
2022-10-17T06:36:54.469Z,13.78
2022-10-17T06:41:58.834Z,13.96
2022-10-17T06:47:20.108Z,14.19
2022-10-17T06:52:25.159Z,14.49
2022-10-17T06:57:48.208Z,14.78
2022-10-17T07:03:04.058Z,15.06
2022-10-17T07:08:08.687Z,15.27
2022-10-17T07:13:15.926Z,15.60
2022-10-17T07:18:18.813Z,15.87
2022-10-17T07:23:23.158Z,16.11
2022-10-17T07:28:27.671Z,16.23
2022-10-17T07:33:31.724Z,16.50
2022-10-17T07:38:35.277Z,16.80
2022-10-17T07:43:41.632Z,16.99
2022-10-17T07:48:46.195Z,17.16
2022-10-17T07:53:49.777Z,17.14
2022-10-17T07:58:54.332Z,17.30
2022-10-17T08:03:57.349Z,17.30
2022-10-17T08:09:02.209Z,17.44
2022-10-17T08:14:06.985Z,17.73
2022-10-17T08:19:11.361Z,17.77
2022-10-17T08:24:14.157Z,18.13
2022-10-17T08:29:19.252Z,18.17
2022-10-17T08:34:23.085Z,18.35
2022-10-17T08:39:25.898Z,18.63
2022-10-17T08:44:41.733Z,18.71
2022-10-17T08:49:49.079Z,18.93
2022-10-17T08:54:52.284Z,19.00
2022-10-17T08:59:56.831Z,19.37
2022-10-17T09:05:26.347Z,19.46
2022-10-17T09:10:39.275Z,19.79
2022-10-17T09:16:02.107Z,20.04
2022-10-17T09:21:17.084Z,20.35
2022-10-17T09:26:20.053Z,20.24
2022-10-17T09:31:27.322Z,20.44
2022-10-17T09:36:32.286Z,20.78
2022-10-17T09:41:45.389Z,21.10
2022-10-17T09:47:04.794Z,21.52
2022-10-17T09:52:15.334Z,21.29
2022-10-17T09:57:21.735Z,21.40
2022-10-17T10:02:31.848Z,21.83
2022-10-17T10:07:36.805Z,22.25
2022-10-17T10:12:40.419Z,21.89
2022-10-17T10:17:44.589Z,22.15
2022-10-17T10:23:06.335Z,22.72
2022-10-17T10:28:12.436Z,22.78
2022-10-17T10:33:16.830Z,22.82
2022-10-17T10:38:19.747Z,22.89
2022-10-17T10:43:29.108Z,22.89
2022-10-17T10:48:36.279Z,22.83
2022-10-17T10:53:45.329Z,22.97
2022-10-17T10:58:56.357Z,23.61
2022-10-17T11:04:13.830Z,24.04
2022-10-17T11:09:33.665Z,23.46
2022-10-17T11:14:44.989Z,23.68
2022-10-17T11:19:57.443Z,24.77
2022-10-17T11:25:05.190Z,24.48
2022-10-17T11:30:13.415Z,24.16
2022-10-17T11:35:21.586Z,24.48
2022-10-17T11:40:30.746Z,24.91
2022-10-17T11:45:38.171Z,24.39
2022-10-17T11:56:13.093Z,25.17
2022-10-17T12:01:24.431Z,25.25
2022-10-17T12:06:45.569Z,25.82
2022-10-17T12:11:54.529Z,25.19
2022-10-17T12:16:57.369Z,25.16
2022-10-17T12:22:05.197Z,25.44
2022-10-17T12:27:36.073Z,25.86
2022-10-17T12:33:03.700Z,25.21
2022-10-17T12:38:22.482Z,25.43
2022-10-17T12:43:43.921Z,25.49
2022-10-17T12:49:04.981Z,24.61
2022-10-17T12:54:15.382Z,24.01
2022-10-17T12:59:23.423Z,24.03
2022-10-17T13:04:27.715Z,23.83
2022-10-17T13:09:34.504Z,24.63
2022-10-17T13:14:42.515Z,24.41
2022-10-17T13:19:47.171Z,24.16
2022-10-17T13:24:52.989Z,24.05
2022-10-17T13:29:57.633Z,24.11
2022-10-17T13:35:55.487Z,24.11
2022-10-17T13:41:01.683Z,24.27
2022-10-17T13:46:36.634Z,24.22
2022-10-17T13:51:44.903Z,23.66
2022-10-17T13:56:57.172Z,23.95
2022-10-17T14:02:02.122Z,23.81
2022-10-17T14:07:07.302Z,23.69
2022-10-17T14:12:17.878Z,23.21
2022-10-17T14:17:24.848Z,23.24
2022-10-17T14:22:29.361Z,22.82
2022-10-17T14:27:36.589Z,22.78
2022-10-17T14:32:39.482Z,22.59
2022-10-17T14:37:45.295Z,22.36
2022-10-17T14:42:49.629Z,22.47
2022-10-17T14:47:55.403Z,22.35
2022-10-17T14:53:03.852Z,22.52
2022-10-17T14:58:19.443Z,22.48
2022-10-17T15:03:22.479Z,22.27
2022-10-17T15:08:25.417Z,22.20
2022-10-17T15:13:32.144Z,22.07
2022-10-17T15:18:37.745Z,21.99
2022-10-17T15:23:41.866Z,21.90
2022-10-17T15:28:47.482Z,21.41
2022-10-17T15:33:50.994Z,21.25
2022-10-17T15:38:55.755Z,21.13
2022-10-17T15:44:00.638Z,21.01
2022-10-17T15:49:07.492Z,20.85
2022-10-17T15:54:10.598Z,20.70
2022-10-17T15:59:19.661Z,20.60
2022-10-17T16:04:27.421Z,20.52
2022-10-17T16:09:30.455Z,20.44
2022-10-17T16:14:34.833Z,20.33
2022-10-17T16:19:38.296Z,20.18
2022-10-17T16:24:41.375Z,20.07
2022-10-17T16:29:45.682Z,19.96
2022-10-17T16:34:48.660Z,19.81
2022-10-17T16:39:53.500Z,19.66
2022-10-17T16:44:57.714Z,19.46
2022-10-17T16:50:00.763Z,19.28
2022-10-17T16:55:04.726Z,19.09
2022-10-17T17:00:11.995Z,18.99
2022-10-17T17:05:15.279Z,18.84
2022-10-17T17:10:18.156Z,18.67
2022-10-17T17:15:22.195Z,18.48
2022-10-17T17:20:25.257Z,18.32
2022-10-17T17:25:28.066Z,18.29
2022-10-17T17:30:33.860Z,18.21
2022-10-17T17:35:40.009Z,18.07
2022-10-17T17:40:50.560Z,17.96
2022-10-17T17:45:55.561Z,17.90
2022-10-17T17:50:58.553Z,17.78
2022-10-17T17:56:06.262Z,17.69
2022-10-17T18:01:17.688Z,17.58
2022-10-17T18:06:22.949Z,17.51
2022-10-17T18:11:27.088Z,17.44
2022-10-17T18:16:32.487Z,17.36
2022-10-17T18:21:35.959Z,17.27
2022-10-17T18:26:38.770Z,17.22
2022-10-17T18:31:43.537Z,17.19
2022-10-17T18:36:46.397Z,17.08
2022-10-17T18:41:49.249Z,17.07
2022-10-17T18:46:53.383Z,17.07
2022-10-17T18:51:56.102Z,17.02
2022-10-17T18:56:59.830Z,17.00
2022-10-17T19:02:04.081Z,16.92
2022-10-17T19:07:06.893Z,16.90
2022-10-17T19:17:38.640Z,16.81
2022-10-17T19:22:41.653Z,16.77
2022-10-17T19:27:44.551Z,16.74
2022-10-17T19:32:48.740Z,16.71
2022-10-17T19:37:51.915Z,16.71
2022-10-17T19:42:55.091Z,16.65
2022-10-17T19:47:59.768Z,16.60
2022-10-17T19:53:03.130Z,16.56
2022-10-17T19:58:05.872Z,16.50
2022-10-17T20:03:10.227Z,16.46
2022-10-17T20:08:13.785Z,16.35
2022-10-17T20:13:16.715Z,16.30
2022-10-17T20:18:20.837Z,16.23
2022-10-17T20:23:23.928Z,16.20
2022-10-17T20:28:27.775Z,16.17
2022-10-17T20:33:32.251Z,16.12
2022-10-17T20:38:35.618Z,16.05
2022-10-17T20:43:38.799Z,16.03
2022-10-17T20:48:42.931Z,15.99
2022-10-17T20:53:45.736Z,15.94
2022-10-17T20:58:51.967Z,15.88
2022-10-17T21:03:59.666Z,15.86
2022-10-17T21:09:06.319Z,15.85
2022-10-17T21:14:09.953Z,15.80
2022-10-17T21:19:14.769Z,15.79
2022-10-17T21:24:20.371Z,15.78
2022-10-17T21:29:23.895Z,15.79
2022-10-17T21:34:28.703Z,15.82
2022-10-17T21:39:32.561Z,15.87
2022-10-17T21:44:36.207Z,15.86
2022-10-17T21:49:40.979Z,15.85
2022-10-17T21:54:43.745Z,15.82
2022-10-17T21:59:46.535Z,15.82
2022-10-17T22:04:50.732Z,15.79
2022-10-17T22:09:53.495Z,15.79
2022-10-17T22:14:56.221Z,15.77
2022-10-17T22:20:00.561Z,15.74
2022-10-17T22:25:03.939Z,15.75
2022-10-17T22:30:08.155Z,15.74
2022-10-17T22:35:12.484Z,15.74
2022-10-17T22:40:15.950Z,15.72
2022-10-17T22:45:18.800Z,15.69
2022-10-17T22:50:24.074Z,15.70
2022-10-17T22:55:28.065Z,15.71
2022-10-17T23:00:31.047Z,15.72
2022-10-17T23:05:35.443Z,15.73
2022-10-17T23:10:40.824Z,15.74
2022-10-17T23:15:44.543Z,15.77
2022-10-17T23:20:49.318Z,15.76
2022-10-17T23:25:52.563Z,15.65
2022-10-17T23:30:55.258Z,15.59
2022-10-17T23:35:59.463Z,15.60
2022-10-17T23:41:03.215Z,15.59
2022-10-17T23:46:07.218Z,15.56
2022-10-17T23:51:11.888Z,15.59
2022-10-17T23:56:14.758Z,15.60
